Aeroporto :
LOGIN :

Iscrizione | Disclaimer

   EN    FR    IT 

 










Sommario :    VFR   VFR Marginale   IFR   IFR Intensivo   IFR Molto Intensivo
Visibilità : 
Base nubi : 
>= 8 km
>= 3000ft
5 / 8 km
1000 / 3000 ft
1500m / 5 km
500 / 1000 ft
800 / 1500m
200 / 500 ft
< 800m
< 200 ft
Simboli :   Temporali  Nebbia  Neve Forte  Precipitazioni Forti  Vento > 20 kt
SIGMETs :   Varie  Temporali  Ghiacco  Turbolenza  Onda orograficha  Ceneri Vulcaniche






- Altitudine del aeroporto : 288 ft
- Codice IATA : BZZ


EGVN - RAF Brize Norton

ULTIMO METAR :
  • 241950Z 17001KT 9999 SCT042 09/05 Q0993 NOSIG RMK BLU BLU

METARs OBSOLETI :
  • 241920Z 14002KT CAVOK 10/06 Q0993 NOSIG RMK BLU BLU
  • 241850Z 16002KT 9999 FEW026 SCT080 BKN250 10/06 Q0992 NOSIG RMK BLU BLU
  • 241750Z 19003KT 9999 FEW026 SCT250 11/05 Q0992 NOSIG RMK BLU BLU
  • 241720Z 19005KT 9999 FEW026 SCT120 12/06 Q0992 NOSIG RMK BLU BLU

TAF TAF EGVN
Valido dal 24 a 18 ore il 25 a 18 ore UTC


241646Z 2418/2518 19008KT 9999 SCT030
PROB40
TEMPO 2418/2422 SCT040CB
PROB40
TEMPO 2503/2507 SCT012
PROB30
TEMPO 2504/2507 7000 -RA
BECMG 2506/2509 31015KT
BECMG 2509/2511 32020G32KT



MetMap, La meteo Aeronautica in un colpo d'occhio ! - Copyright ORBIFLY Dicembre 2007 - Disclaimer

ORBIFLY MET'MAP TEAM :

Programmazione e sviluppo : Alexandra Zaïnal
Concezione : Baudouin d'Aumeries
Aiuto per la programmazione : Marc-Olivier Méhu
Supporto tecnico e logistico : Manuel Goepfert
Aiuto per la traduzione : Arnaldo La Scala

Contatto : metmap@orbifly.com




FONTI E CREDITI :

   NOAA